MET'MAP v2.0
soon released !

Expected late october,
this new version will be
more efficient, smarter,
and hosted on a brand new
server x3 powerfull...
...and still free !


Not compatible ?
Try the mobile version !

LOG IN : | Subscribe | Disclaimer | Who is Orbifly ? |
ICAO code :
Legend : VFR Marginal VFR IFR Intensive IFR Very Intensive IFR
Visi :
Ceiling :
>= 8 km
>= 3000ft
5 to 8 km
1000 to 3000 ft
1500m to 5 km
500 to 1000 ft
800 to 1500m
200 to 500 ft
< 800m
< 200 ft

METAR - EPPO Poznan-Lawica - 27 May 2020 12:27 UTC - Data Source NOAA   


- Airport Elevation : 308 ft
- IATA code : POZ
- No reported NOTAMs.


EPPO - Poznan-Lawica

Latest METAR recorded : 2015/08/11 08:00 EPPO 110800Z 10009KT CAVOK 28/15 Q1015
TAF TAF EPPO
Valid from the 27 at 06:00 until the 28 at 06:00 UTC


270530Z 2706/2806 35005KT CAVOK
BECMG 2802/2804 35015KT
TEMPO 2802/2806 4000 SHRA BKN012 BKN025CB

Source NOAA


MET'MAP, your aeronautical weather chart ! - Copyright ORBIFLY December 2007

Programming & Development : Alexandra Zaïnal
Co-Developer : Marc-Olivier Méhu
Technical & hardware support : Manuel Goepfert
Concept & Financing : Baudouin d'Aumeries